Terminal Aerodrome Forecast
Issued by NWS

Home | Current Version | Previous Version | Text Only | Print | Product List | Glossary On
Versions: 1 2 3 4 5 6 7 8 9 10 11 12 13 14 15 16 17 18 19 20 21 22 23 24 25 26 27 28 29 30 31 32 33 34 35
000
FTUS45 KCYS 261355 AAA
TAFRWL
TAF AMD
KRWL 261355Z 2614/2712 24007KT P6SM BKN012
     FM261600 25017G25KT P6SM SCT025 BKN100
     FM261800 25018G28KT P6SM VCSH BKN050 OVC080
     FM270100 23010KT P6SM BKN080=

USA.gov is the U.S. government's official web portal to all federal, state and local government web resources and services.